.
WxDataArchive / Data Records for 2009-11-30
2009-11-29 November 2009 2009-12-01

Data Records for Monday, 30 November 2009

Time	Temp	Chill	HIndex	Humid	Dewpt	 Wind 	HiWind	WindDir	Rain 	Barom 
-----	----	-----	------	-----	-----	------	------	-------	-----	----- 
00:00	39.3	39.3	39.3	87	35.8	0	2	338	0.00	29.848 
00:05	39.2	39.2	39.2	87	35.7	0	2	270	0.00	29.848 
00:10	39.2	39.2	39.2	87	35.7	1	3	270	0.00	29.848 
00:15	39.1	39.1	39.1	87	35.6	0	2	270	0.00	29.849 
00:20	38.9	38.9	38.9	88	35.7	0	1	292	0.00	29.849 
00:25	38.9	38.9	38.9	88	35.7	0	2	292	0.00	29.849 
00:30	38.9	38.9	38.9	88	35.7	1	2	292	0.00	29.847 
00:35	38.9	38.9	38.9	88	35.7	0	2	292	0.00	29.847 
00:40	38.9	38.9	38.9	88	35.7	0	1	292	0.00	29.847 
00:45	38.9	38.9	38.9	88	35.7	1	3	292	0.00	29.851 
00:50	38.9	38.9	38.9	88	35.7	0	2	292	0.00	29.851 
00:55	38.8	38.8	38.8	89	35.8	0	1	292	0.00	29.851 
01:00	38.6	38.6	38.6	89	35.6	0	3	292	0.00	29.853 
01:05	38.5	38.5	38.5	89	35.5	0	2	270	0.00	29.853 
01:10	38.5	38.5	38.5	89	35.5	0	1	270	0.00	29.853 
01:15	38.3	38.3	38.3	89	35.3	0	1	270	0.00	29.856 
01:20	38.3	38.3	38.3	89	35.3	0	3	270	0.00	29.856 
01:25	38.2	38.2	38.2	89	35.2	0	2	0	0.00	29.856 
01:30	38.2	38.2	38.2	90	35.5	0	2	0	0.00	29.856 
01:35	38.0	38.0	38.0	90	35.3	0	1	0	0.00	29.856 
01:40	37.9	37.9	37.9	90	35.2	0	2	0	0.00	29.856 
01:45	37.8	37.8	37.8	90	35.1	0	2	0	0.00	29.861 
01:50	37.8	37.8	37.8	90	35.1	0	2	248	0.00	29.861 
01:55	37.6	37.6	37.6	91	35.2	0	1	248	0.00	29.861 
02:00	37.6	37.6	37.6	91	35.2	0	2	248	0.00	29.861 
02:05	37.5	37.5	37.5	91	35.1	0	1	248	0.00	29.861 
02:10	37.5	37.5	37.5	91	35.1	0	1	248	0.00	29.861 
02:15	37.3	37.3	37.3	91	34.9	0	0	---	0.00	29.873 
02:20	37.2	37.2	37.2	91	34.8	0	0	---	0.00	29.873 
02:25	37.0	37.0	37.0	91	34.6	0	1	248	0.00	29.873 
02:30	37.0	37.0	37.0	91	34.6	0	2	248	0.00	29.881 
02:35	37.0	37.0	37.0	91	34.6	0	0	---	0.00	29.881 
02:40	36.9	36.9	36.9	91	34.5	0	0	---	0.00	29.881 
02:45	36.8	36.8	36.8	91	34.4	0	0	---	0.00	29.888 
02:50	36.9	36.9	36.9	91	34.5	0	0	---	0.00	29.888 
02:55	36.9	36.9	36.9	92	34.8	0	0	---	0.00	29.888 
03:00	36.9	36.9	36.9	92	34.8	0	0	---	0.00	29.894 
03:05	36.9	36.9	36.9	92	34.8	0	0	---	0.00	29.894 
03:10	36.9	36.9	36.9	92	34.8	0	0	---	0.00	29.894 
03:15	37.0	37.0	37.0	92	34.9	0	0	---	0.00	29.893 
03:20	37.0	37.0	37.0	92	34.9	0	0	---	0.00	29.893 
03:25	37.0	37.0	37.0	92	34.9	0	0	---	0.00	29.893 
03:30	37.0	37.0	37.0	92	34.9	0	1	248	0.00	29.900 
03:35	37.0	37.0	37.0	92	34.9	0	0	---	0.00	29.900 
03:40	37.0	37.0	37.0	92	34.9	0	1	248	0.00	29.900 
03:45	37.2	37.2	37.2	92	35.1	0	0	---	0.00	29.897 
03:50	37.2	37.2	37.2	92	35.1	0	0	---	0.00	29.897 
03:55	37.2	37.2	37.2	92	35.1	0	0	---	0.00	29.897 
04:00	37.0	37.0	37.0	92	34.9	0	0	---	0.00	29.894 
04:05	36.9	36.9	36.9	92	34.8	0	0	---	0.00	29.894 
04:10	36.9	36.9	36.9	92	34.8	0	0	---	0.00	29.894 
04:15	37.0	37.0	37.0	92	34.9	0	0	---	0.00	29.906 
04:20	37.2	37.2	37.2	92	35.1	0	2	248	0.00	29.906 
04:25	37.2	37.2	37.2	92	35.1	0	1	248	0.00	29.906 
04:30	37.3	37.3	37.3	92	35.2	0	1	248	0.00	29.908 
04:35	37.3	37.3	37.3	92	35.2	0	1	248	0.00	29.908 
04:40	37.5	37.5	37.5	92	35.4	0	1	248	0.00	29.908 
04:45	37.5	37.5	37.5	92	35.4	0	0	---	0.00	29.909 
04:50	37.5	37.5	37.5	92	35.4	0	0	---	0.00	29.909 
04:55	37.5	37.5	37.5	91	35.1	0	1	248	0.00	29.909 
05:00	37.5	37.5	37.5	91	35.1	0	0	---	0.00	29.911 
05:05	37.3	37.3	37.3	91	34.9	0	0	---	0.00	29.911 
05:10	37.3	37.3	37.3	91	34.9	0	0	---	0.00	29.911 
05:15	37.3	37.3	37.3	91	34.9	0	1	248	0.00	29.917 
05:20	37.3	37.3	37.3	91	34.9	0	0	---	0.00	29.917 
05:25	37.3	37.3	37.3	91	34.9	0	1	248	0.00	29.917 
05:30	37.3	37.3	37.3	91	34.9	0	1	248	0.00	29.919 
05:35	37.3	37.3	37.3	91	34.9	0	0	---	0.00	29.919 
05:40	37.3	37.3	37.3	91	34.9	0	1	248	0.00	29.919 
05:45	37.3	37.3	37.3	91	34.9	0	1	248	0.00	29.920 
05:50	37.3	37.3	37.3	91	34.9	0	1	248	0.00	29.920 
05:55	37.3	37.3	37.3	91	34.9	0	0	---	0.00	29.920 
06:00	37.2	37.2	37.2	91	34.8	0	1	248	0.00	29.921 
06:05	37.2	37.2	37.2	91	34.8	0	0	---	0.00	29.921 
06:10	37.2	37.2	37.2	91	34.8	0	1	248	0.00	29.921 
06:15	37.3	37.3	37.3	91	34.9	0	2	248	0.00	29.926 
06:20	37.3	37.3	37.3	91	34.9	0	2	0	0.00	29.926 
06:25	37.3	37.3	37.3	91	34.9	0	2	338	0.00	29.926 
06:30	37.3	37.3	37.3	91	34.9	0	1	338	0.00	29.926 
06:35	37.3	37.3	37.3	91	34.9	0	3	338	0.00	29.926 
06:40	37.3	37.3	37.3	90	34.6	0	1	315	0.00	29.926 
06:45	37.2	37.2	37.2	90	34.5	0	2	315	0.00	29.931 
06:50	37.2	37.2	37.2	90	34.5	0	3	22	0.00	29.931 
06:55	37.2	37.2	37.2	89	34.3	1	3	338	0.00	29.931 
07:00	37.2	37.2	37.2	88	34.0	1	4	338	0.00	29.938 
07:05	37.2	37.2	37.2	88	34.0	0	2	0	0.00	29.938 
07:10	37.2	37.2	37.2	88	34.0	0	1	0	0.00	29.938 
07:15	37.0	37.0	37.0	88	33.8	0	0	---	0.00	29.946 
07:20	37.0	37.0	37.0	88	33.8	0	1	0	0.00	29.946 
07:25	37.0	37.0	37.0	87	33.5	0	1	0	0.00	29.946 
07:30	37.0	37.0	37.0	87	33.5	0	1	0	0.00	29.956 
07:35	36.9	36.9	36.9	87	33.4	0	2	270	0.00	29.956 
07:40	36.9	36.9	36.9	87	33.4	0	0	---	0.00	29.956 
07:45	36.8	36.8	36.8	87	33.3	0	0	---	0.00	29.960 
07:50	36.8	36.8	36.8	87	33.3	0	1	270	0.00	29.960 
07:55	36.6	36.6	36.6	87	33.1	0	0	---	0.00	29.960 
08:00	36.6	36.6	36.6	87	33.1	0	0	---	0.00	29.965 
08:05	36.5	36.5	36.5	88	33.3	0	0	---	0.00	29.965 
08:10	36.5	36.5	36.5	88	33.3	0	1	270	0.00	29.965 
08:15	36.5	36.5	36.5	88	33.3	0	0	---	0.00	29.977 
08:20	36.5	36.5	36.5	88	33.3	0	0	---	0.00	29.977 
08:25	36.5	36.5	36.5	88	33.3	0	0	---	0.00	29.977 
08:30	36.5	36.5	36.5	88	33.3	0	1	270	0.00	29.982 
08:35	36.5	36.5	36.5	88	33.3	0	0	---	0.00	29.982 
08:40	36.6	36.6	36.6	88	33.4	0	1	270	0.00	29.982 
08:45	36.8	36.8	36.8	88	33.6	0	2	270	0.00	29.990 
08:50	36.9	36.9	36.9	88	33.7	0	2	270	0.00	29.990 
08:55	36.9	36.9	36.9	87	33.4	0	1	270	0.00	29.990 
09:00	37.0	37.0	37.0	87	33.5	0	1	270	0.00	29.985 
09:05	37.0	37.0	37.0	87	33.5	0	1	270	0.00	29.985 
09:10	36.9	36.9	36.9	85	32.8	1	3	270	0.00	29.985 
09:15	36.9	36.9	36.9	85	32.8	0	1	270	0.00	29.985 
09:20	36.9	36.9	36.9	84	32.5	0	1	270	0.00	29.985 
09:25	37.0	37.0	37.0	84	32.6	0	2	270	0.00	29.985 
09:30	37.2	37.2	37.2	83	32.5	0	2	270	0.00	29.983 
09:35	37.2	37.2	37.2	83	32.5	0	1	270	0.00	29.983 
09:40	37.3	37.3	37.3	82	32.3	0	1	270	0.00	29.983 
09:45	37.6	37.6	37.6	81	32.3	0	2	270	0.00	29.982 
09:50	38.0	38.0	38.0	80	32.4	0	2	270	0.00	29.982 
09:55	38.3	38.3	38.3	78	32.1	0	3	270	0.00	29.982 
10:00	38.8	38.8	38.8	79	32.9	0	4	270	0.00	29.982 
10:05	38.9	38.9	38.9	77	32.3	0	2	270	0.00	29.982 
10:10	39.1	39.1	39.1	75	31.9	1	3	270	0.00	29.982 
10:15	39.1	39.1	39.1	73	31.2	1	3	315	0.00	29.992 
10:20	39.3	39.3	39.3	73	31.4	1	3	338	0.00	29.992 
10:25	39.6	39.6	39.6	72	31.3	1	3	338	0.00	29.992 
10:30	39.9	39.9	39.9	72	31.6	1	4	315	0.00	29.992 
10:35	40.3	40.3	40.3	70	31.3	1	3	270	0.00	29.992 
10:40	40.6	40.6	40.6	69	31.2	1	3	270	0.00	29.992 
10:45	40.3	40.3	40.3	65	29.5	1	6	292	0.00	29.997 
10:50	40.1	40.1	40.1	65	29.3	1	4	270	0.00	29.997 
10:55	39.9	39.9	39.9	64	28.7	1	3	0	0.00	29.997 
11:00	39.9	39.9	39.9	65	29.1	1	5	292	0.00	30.000 
11:05	39.9	39.9	39.9	64	28.7	2	3	315	0.00	30.000 
11:10	39.9	39.9	39.9	65	29.1	1	4	315	0.00	30.000 
11:15	40.1	40.1	40.1	67	30.0	1	3	248	0.00	30.005 
11:20	40.1	40.1	40.1	65	29.3	2	4	292	0.00	30.005 
11:25	40.1	40.1	40.1	66	29.7	1	3	315	0.00	30.005 
11:30	40.1	40.1	40.1	65	29.3	1	3	315	0.00	30.005 
11:35	39.9	39.9	39.9	65	29.1	2	6	292	0.00	30.005 
11:40	40.1	40.1	40.1	65	29.3	1	4	315	0.00	30.005 
11:45	40.1	40.1	40.1	65	29.3	1	4	338	0.00	30.006 
11:50	40.1	40.1	40.1	65	29.3	2	5	315	0.00	30.006 
11:55	40.2	40.2	40.2	63	28.6	1	5	292	0.00	30.006 
12:00	40.3	40.3	40.3	56	25.9	2	4	270	0.00	30.000 
12:05	40.5	40.5	40.5	57	26.5	1	5	315	0.00	30.000 
12:10	40.2	40.2	40.2	55	25.3	1	4	248	0.00	30.000 
12:15	40.3	40.3	40.3	57	26.3	1	2	315	0.00	29.998 
12:20	40.2	40.2	40.2	55	25.3	2	4	338	0.00	29.998 
12:25	40.1	40.1	40.1	55	25.2	2	4	315	0.00	29.998 
12:30	40.1	40.1	40.1	56	25.7	2	4	270	0.00	29.998 
12:35	40.1	40.1	40.1	57	26.1	2	5	270	0.00	29.998 
12:40	39.8	39.8	39.8	57	25.8	2	7	338	0.00	29.998 
12:45	39.6	39.6	39.6	57	25.6	2	6	270	0.00	29.996 
12:50	39.6	39.6	39.6	59	26.5	1	4	315	0.00	29.996 
12:55	39.6	39.6	39.6	61	27.3	1	3	315	0.00	29.996 
13:00	39.8	39.8	39.8	60	27.1	1	3	315	0.00	29.995 
13:05	39.9	39.9	39.9	54	24.6	2	6	338	0.00	29.995 
13:10	40.1	40.1	40.1	54	24.8	1	4	338	0.00	29.995 
13:15	40.1	40.1	40.1	54	24.8	1	4	338	0.00	29.988 
13:20	40.1	40.1	40.1	52	23.9	2	5	338	0.00	29.988 
13:25	40.1	40.1	40.1	52	23.9	1	3	315	0.00	29.988 
13:30	40.3	40.3	40.3	52	24.1	2	4	315	0.00	29.986 
13:35	40.3	40.3	40.3	53	24.5	3	6	248	0.00	29.986 
13:40	40.5	40.5	40.5	51	23.8	2	5	248	0.00	29.986 
13:45	40.5	40.5	40.5	52	24.3	1	3	248	0.00	29.981 
13:50	40.5	40.5	40.5	53	24.7	1	4	248	0.00	29.981 
13:55	40.3	40.3	40.3	53	24.5	2	4	248	0.00	29.981 
14:00	40.3	40.3	40.3	55	25.4	0	3	270	0.00	29.980 
14:05	40.2	40.2	40.2	53	24.5	2	5	270	0.00	29.980 
14:10	40.2	40.2	40.2	54	24.9	2	4	338	0.00	29.980 
14:15	40.2	40.2	40.2	54	24.9	2	6	338	0.00	29.982 
14:20	40.2	40.2	40.2	53	24.5	2	4	270	0.00	29.982 
14:25	40.1	40.1	40.1	52	23.9	1	4	338	0.00	29.982 
14:30	40.1	40.1	40.1	54	24.8	1	3	315	0.00	29.979 
14:35	40.3	40.3	40.3	56	25.9	2	4	270	0.00	29.979 
14:40	40.3	40.3	40.3	57	26.3	1	4	270	0.00	29.979 
14:45	40.2	40.2	40.2	57	26.2	2	4	270	0.00	29.981 
14:50	40.1	40.1	40.1	57	26.1	1	3	270	0.00	29.981 
14:55	40.1	40.1	40.1	57	26.1	1	3	225	0.00	29.981 
15:00	40.2	40.2	40.2	57	26.2	1	3	270	0.00	29.982 
15:05	40.2	40.2	40.2	58	26.6	1	5	248	0.00	29.982 
15:10	40.2	40.2	40.2	57	26.2	1	3	248	0.00	29.982 
15:15	40.2	40.2	40.2	57	26.2	2	4	248	0.00	29.981 
15:20	40.2	40.2	40.2	57	26.2	2	5	248	0.00	29.981 
15:25	40.2	40.2	40.2	56	25.8	2	5	248	0.00	29.981 
15:30	40.2	40.2	40.2	55	25.3	1	5	248	0.00	29.979 
15:35	40.2	40.2	40.2	55	25.3	1	4	270	0.00	29.979 
15:40	40.2	40.2	40.2	54	24.9	2	9	270	0.00	29.979 
15:45	40.2	40.2	40.2	54	24.9	1	4	270	0.00	29.979 
15:50	40.2	40.2	40.2	54	24.9	2	6	270	0.00	29.979 
15:55	40.1	40.1	40.1	56	25.7	1	2	270	0.00	29.979 
16:00	40.1	40.1	40.1	56	25.7	1	5	270	0.00	29.978 
16:05	39.9	39.9	39.9	57	25.9	1	3	270	0.00	29.978 
16:10	39.8	39.8	39.8	57	25.8	2	5	248	0.00	29.978 
16:15	39.6	39.6	39.6	59	26.5	1	4	248	0.00	29.975 
16:20	39.6	39.6	39.6	60	26.9	1	4	248	0.00	29.975 
16:25	39.5	39.5	39.5	61	27.2	1	5	270	0.00	29.975 
16:30	39.5	39.5	39.5	62	27.6	0	2	270	0.00	29.972 
16:35	39.3	39.3	39.3	62	27.4	0	1	270	0.00	29.972 
16:40	39.5	39.5	39.5	62	27.6	1	6	270	0.00	29.972 
16:45	39.5	39.5	39.5	61	27.2	2	6	270	0.00	29.965 
16:50	39.3	39.3	39.3	59	26.2	3	9	248	0.00	29.965 
16:55	39.1	39.1	39.1	58	25.6	2	5	248	0.00	29.965 
17:00	38.8	38.8	38.8	59	25.7	1	4	248	0.00	29.966 
17:05	38.5	38.5	38.5	60	25.8	0	3	248	0.00	29.966 
17:10	38.3	38.3	38.3	60	25.6	2	6	248	0.00	29.966 
17:15	38.2	38.2	38.2	61	26.0	2	10	248	0.00	29.970 
17:20	38.0	38.0	38.0	61	25.8	2	5	248	0.00	29.970 
17:25	38.0	38.0	38.0	62	26.2	2	6	248	0.00	29.970 
17:30	38.0	38.0	38.0	62	26.2	1	5	248	0.00	29.977 
17:35	37.9	37.9	37.9	63	26.4	1	3	248	0.00	29.977 
17:40	37.9	37.9	37.9	63	26.4	1	4	248	0.00	29.977 
17:45	37.9	37.9	37.9	63	26.4	2	7	270	0.00	29.981 
17:50	37.9	37.9	37.9	63	26.4	1	5	248	0.00	29.981 
17:55	37.8	37.8	37.8	63	26.4	2	4	248	0.00	29.981 
18:00	37.8	37.8	37.8	64	26.7	2	5	270	0.00	29.986 
18:05	37.8	37.8	37.8	64	26.7	1	5	270	0.00	29.986 
18:10	37.8	37.8	37.8	65	27.1	2	5	248	0.00	29.986 
18:15	37.8	37.8	37.8	65	27.1	2	6	270	0.00	29.990 
18:20	37.6	37.6	37.6	66	27.3	2	6	248	0.00	29.990 
18:25	37.6	37.6	37.6	66	27.3	2	6	248	0.00	29.990 
18:30	37.5	37.5	37.5	65	26.8	2	4	248	0.00	29.991 
18:35	37.5	37.5	37.5	64	26.4	3	9	270	0.00	29.991 
18:40	37.5	37.5	37.5	64	26.4	3	7	270	0.00	29.991 
18:45	37.3	37.3	37.3	64	26.3	2	6	248	0.00	29.997 
18:50	37.2	37.2	37.2	63	25.8	3	7	270	0.00	29.997 
18:55	37.0	37.0	37.0	63	25.6	3	10	248	0.00	29.997 
19:00	36.9	36.9	36.9	63	25.5	2	6	248	0.00	29.999 
19:05	36.6	33.4	36.6	63	25.2	4	11	248	0.00	29.999 
19:10	36.5	36.5	36.5	62	24.7	3	10	248	0.00	29.999 
19:15	36.3	36.3	36.3	63	24.9	2	7	248	0.00	30.001 
19:20	36.3	33.0	36.3	63	24.9	4	10	248	0.00	30.001 
19:25	36.2	36.2	36.2	63	24.8	2	5	248	0.00	30.001 
19:30	36.2	36.2	36.2	63	24.8	3	8	248	0.00	29.998 
19:35	36.0	36.0	36.0	64	25.0	3	10	248	0.00	29.998 
19:40	36.0	36.0	36.0	64	25.0	2	7	270	0.00	29.998 
19:45	35.9	35.9	35.9	65	25.3	2	6	270	0.00	29.994 
19:50	35.6	32.2	35.6	65	25.0	4	9	270	0.00	29.994 
19:55	35.5	35.5	35.5	65	24.9	3	7	248	0.00	29.994 
20:00	35.3	35.3	35.3	65	24.7	3	11	248	0.00	29.994 
20:05	35.2	31.8	35.2	65	24.6	4	8	248	0.00	29.994 
20:10	35.0	35.0	35.0	66	24.8	2	7	248	0.00	29.994 
20:15	34.7	34.7	34.7	66	24.5	1	5	248	0.00	29.999 
20:20	34.6	34.6	34.6	67	24.8	2	7	248	0.00	29.999 
20:25	34.4	34.4	34.4	67	24.6	2	7	248	0.00	29.999 
20:30	34.4	34.4	34.4	67	24.6	3	6	248	0.00	30.002 
20:35	34.4	34.4	34.4	68	24.9	3	11	248	0.00	30.002 
20:40	34.3	34.3	34.3	68	24.9	2	5	248	0.00	30.002 
20:45	34.1	34.1	34.1	69	25.0	2	7	248	0.00	29.997 
20:50	34.0	34.0	34.0	69	24.9	1	5	248	0.00	29.997 
20:55	33.8	33.8	33.8	69	24.7	1	5	248	0.00	29.997 
21:00	33.7	33.7	33.7	70	25.0	2	7	248	0.00	29.990 
21:05	33.7	33.7	33.7	70	25.0	2	4	248	0.00	29.990 
21:10	33.5	33.5	33.5	70	24.8	2	10	248	0.00	29.990 
21:15	33.4	33.4	33.4	71	25.0	1	5	248	0.00	29.984 
21:20	33.4	33.4	33.4	71	25.0	2	9	248	0.00	29.984 
21:25	33.2	33.2	33.2	72	25.2	1	4	248	0.00	29.984 
21:30	33.2	33.2	33.2	72	25.2	2	6	270	0.00	29.976 
21:35	33.1	33.1	33.1	73	25.4	2	9	248	0.00	29.976 
21:40	33.1	33.1	33.1	73	25.4	2	6	248	0.00	29.976 
21:45	32.9	32.9	32.9	73	25.2	2	6	248	0.00	29.970 
21:50	32.9	32.9	32.9	73	25.2	3	7	225	0.00	29.970 
21:55	32.9	32.9	32.9	73	25.2	2	6	248	0.00	29.970 
22:00	32.9	32.9	32.9	74	25.5	3	10	248	0.00	29.965 
22:05	32.9	32.9	32.9	74	25.5	2	6	248	0.00	29.965 
22:10	32.9	32.9	32.9	75	25.9	3	10	248	0.00	29.965 
22:15	32.9	32.9	32.9	75	25.9	3	9	248	0.00	29.967 
22:20	32.9	32.9	32.9	75	25.9	3	11	225	0.00	29.967 
22:25	32.9	29.1	32.9	75	25.9	4	9	248	0.00	29.967 
22:30	32.9	32.9	32.9	75	25.9	2	7	248	0.00	29.970 
22:35	32.9	32.9	32.9	75	25.9	2	6	248	0.00	29.970 
22:40	32.9	32.9	32.9	75	25.9	3	7	248	0.00	29.970 
22:45	32.9	32.9	32.9	76	26.2	2	5	248	0.00	29.951 
22:50	32.9	32.9	32.9	76	26.2	2	6	248	0.00	29.951 
22:55	32.9	29.1	32.9	76	26.2	4	10	248	0.00	29.951 
23:00	33.1	33.1	33.1	76	26.4	3	9	248	0.00	29.955 
23:05	33.1	33.1	33.1	76	26.4	3	9	248	0.00	29.955 
23:10	33.1	33.1	33.1	76	26.4	3	7	248	0.00	29.955 
23:15	33.2	33.2	33.2	76	26.5	3	9	248	0.00	29.953 
23:20	33.2	33.2	33.2	76	26.5	2	6	248	0.00	29.953 
23:25	33.4	33.4	33.4	76	26.7	3	7	248	0.00	29.953 
23:30	33.5	33.5	33.5	76	26.8	3	7	248	0.00	29.952 
23:35	33.7	33.7	33.7	76	27.0	3	9	248	0.00	29.952 
23:40	33.8	30.2	33.8	76	27.1	4	10	248	0.00	29.952 
23:45	33.8	30.2	33.8	75	26.7	4	12	248	0.00	29.950 
23:50	33.8	33.8	33.8	75	26.7	3	10	248	0.00	29.950 
23:55	33.8	33.8	33.8	75	26.7	3	9	248	0.00	29.950 

CoCoRaHS
IN-AL-39
A2 Web Hosting
Creative Commons License
GoDaddy
search engine by freefind advanced

loaded 2018-11-19 20:02:09 • last modified 2010-11-18 10:43:29
Privacy PolicyDisclaimer
• wx.awcolley.com is powered by PmWiki v.2002016 •
• all content (unless otherwise noted) © 2018 A W Colley